首页
METAR-TAF:

METAR-TAF

机场 :

Cape Parry, 西北特區, 加拿大

纬度: 70-06N, 经度: 124-43W, 海拔: 87米

当前天气观测

该预报发布于1小时和19分钟前的16:00 UTC
风速13节,风向
温度 0°C
湿度 93%
气压 1024 hPa
阴天层高于300英尺

METAR: CZCP 051600Z AUTO 09013KT ////SM //// OVC003 M00/M01 A3025

时间: 11:19 (17:19 UTC)


TAF: 丢失

超过4000个机场的气象观测和天气预报(METAR&TAF报告)。

可查询的气象台以黄色和红色小点在地图上表示。

将鼠标移到小点上方,可查看气象台名称。

然后点击查看天气观测和预报。

如需切换地图:点击带黑十字的绿色按钮放大地图;点击带横线的绿色按钮缩小地图;或者点击绿色箭头查看邻近地区的地图。


METAR-TAF: